KMJX

Ocean County Airport

Toms River, New Jersey, USA
METAR KMJX 252156Z AUTO 24010G19KT 10SM CLR 30/16 A2989 RMK AO2 SLP127 T03000156
Observed Flight Rules
May-25 @ 21:56 UTC (43 minutes ago) Visual Flight Rules
Wind Visibility Clouds
240° at 10 knots
 Gusting to 19 knots
10 miles
  • Clear skies
Temperatures Readings
Current 30°C / 86°F
Dewpoint 16°C / 61°F
Humidity 43%
Altimeter 29.89" Hg
Pressure 1012.7 hPa
Elevation 25
METAR KMJX 252156Z AUTO 24010G19KT 10SM CLR 30/16 A2989 RMK AO2 SLP127 T03000156
Observed Flight Rules
May-25 @ 21:56 UTC
(43 minutes ago)
VFR
Wind Visibility
240° at 10 knots
 Gusting to 19 knots
10 miles
Clouds
  • Clear skies
Temperature Dewpoint
30°C / 86°F 16°C / 61°F
Humidity Altimeter Pressure
43% 29.89" Hg 1012.7 hPa